createdAt,value
2023-04-16T00:00:08.593Z,30.00
2023-04-16T00:02:40.064Z,21.00
2023-04-16T00:05:09.708Z,26.15
2023-04-16T00:07:38.027Z,131.95
2023-04-16T00:10:07.330Z,105.05
2023-04-16T00:12:35.616Z,58.08
2023-04-16T00:15:03.987Z,101.47
2023-04-16T00:17:32.499Z,92.55
2023-04-16T00:20:01.108Z,109.03
2023-04-16T00:22:29.509Z,125.40
2023-04-16T00:25:00.708Z,108.70
2023-04-16T00:27:29.246Z,104.30
2023-04-16T00:29:57.622Z,75.72
2023-04-16T00:32:25.834Z,223.45
2023-04-16T00:34:54.054Z,56.08
2023-04-16T00:37:22.220Z,31.80
2023-04-16T00:39:51.601Z,58.05
2023-04-16T00:42:19.654Z,26.15
2023-04-16T00:44:47.901Z,12.52
2023-04-16T00:47:16.733Z,18.40
2023-04-16T00:49:45.182Z,12.27
2023-04-16T00:52:13.646Z,18.38
2023-04-16T00:54:42.065Z,11.70
2023-04-16T00:57:11.240Z,11.05
2023-04-16T00:59:39.491Z,11.50
2023-04-16T01:02:08.264Z,6.90
2023-04-16T01:04:36.684Z,13.23
2023-04-16T01:07:05.021Z,14.40
2023-04-16T01:09:33.270Z,7.65
2023-04-16T01:12:01.503Z,10.80
2023-04-16T01:14:29.934Z,7.82
2023-04-16T01:16:58.082Z,6.85
2023-04-16T01:19:26.310Z,7.20
2023-04-16T01:21:54.574Z,10.15
2023-04-16T01:24:22.896Z,10.80
2023-04-16T01:26:51.017Z,13.85
2023-04-16T01:29:19.244Z,6.90
2023-04-16T01:31:47.788Z,18.85
2023-04-16T01:34:37.119Z,19.75
2023-04-16T01:37:05.864Z,11.23
2023-04-16T01:39:33.950Z,15.30
2023-04-16T01:42:02.954Z,8.95
2023-04-16T01:44:31.351Z,8.13
2023-04-16T01:46:59.728Z,11.20
2023-04-16T01:49:28.019Z,14.60
2023-04-16T01:51:56.114Z,11.95
2023-04-16T01:54:24.411Z,7.70
2023-04-16T01:56:52.644Z,14.23
2023-04-16T01:59:20.841Z,7.20
2023-04-16T02:01:49.575Z,18.58
2023-04-16T02:04:17.843Z,18.88
2023-04-16T02:06:46.176Z,13.55
2023-04-16T02:09:15.150Z,11.38
2023-04-16T02:11:43.410Z,10.23
2023-04-16T02:14:11.575Z,10.30
2023-04-16T02:16:39.832Z,7.15
2023-04-16T02:19:37.126Z,9.95
2023-04-16T02:22:06.159Z,10.85
2023-04-16T02:24:34.198Z,9.68
2023-04-16T02:27:07.329Z,7.80
2023-04-16T02:29:35.628Z,11.15
2023-04-16T02:32:13.606Z,12.68
2023-04-16T02:34:45.460Z,9.27
2023-04-16T02:37:14.894Z,9.77
2023-04-16T02:39:43.045Z,9.60
2023-04-16T02:42:11.170Z,14.02
2023-04-16T02:44:39.450Z,13.23
2023-04-16T02:47:07.623Z,23.77
2023-04-16T02:49:35.893Z,11.25
2023-04-16T02:52:04.056Z,11.73
2023-04-16T02:54:32.422Z,8.90
2023-04-16T02:57:00.491Z,9.13
2023-04-16T02:59:28.639Z,11.30
2023-04-16T03:01:57.154Z,8.23
2023-04-16T03:04:25.480Z,11.20
2023-04-16T03:06:53.652Z,9.50
2023-04-16T03:09:21.797Z,11.77
2023-04-16T03:11:50.028Z,13.07
2023-04-16T03:14:18.578Z,13.50
2023-04-16T03:16:46.707Z,10.48
2023-04-16T03:19:14.972Z,12.95
2023-04-16T03:21:44.821Z,10.55
2023-04-16T03:24:13.123Z,13.60
2023-04-16T03:26:41.428Z,7.47
2023-04-16T03:29:10.848Z,12.00
2023-04-16T03:31:39.391Z,8.05
2023-04-16T03:34:07.584Z,14.65
2023-04-16T03:36:36.498Z,20.23
2023-04-16T03:39:04.701Z,8.02
2023-04-16T03:41:33.083Z,11.52
2023-04-16T03:44:02.016Z,12.40
2023-04-16T03:46:30.601Z,11.32
2023-04-16T03:48:58.859Z,11.93
2023-04-16T03:51:27.242Z,12.55
2023-04-16T03:53:55.444Z,20.20
2023-04-16T03:56:25.036Z,23.63
2023-04-16T03:58:54.363Z,16.10
2023-04-16T04:01:22.645Z,18.75
2023-04-16T04:03:51.294Z,21.30
2023-04-16T04:06:19.718Z,20.02
2023-04-16T04:08:49.251Z,18.27
2023-04-16T04:11:17.792Z,21.98
2023-04-16T04:13:46.249Z,19.08
2023-04-16T04:16:14.611Z,15.75
2023-04-16T04:18:44.804Z,13.63
2023-04-16T04:21:13.365Z,14.60
2023-04-16T04:23:41.524Z,16.13
2023-04-16T04:26:10.038Z,14.05
2023-04-16T04:28:38.327Z,10.27
2023-04-16T04:31:06.724Z,20.42
2023-04-16T04:33:34.802Z,17.15
2023-04-16T04:36:03.532Z,31.63
2023-04-16T04:38:34.045Z,26.05
2023-04-16T04:41:02.265Z,24.35
2023-04-16T04:43:34.525Z,18.88
2023-04-16T04:46:02.945Z,46.15
2023-04-16T04:48:32.800Z,35.72
2023-04-16T04:51:03.542Z,28.38
2023-04-16T04:53:33.121Z,36.75
2023-04-16T04:56:11.067Z,43.67
2023-04-16T04:58:41.936Z,19.23
2023-04-16T05:01:10.170Z,23.92
2023-04-16T05:03:38.439Z,23.20
2023-04-16T05:06:07.930Z,20.48
2023-04-16T05:08:36.285Z,16.38
2023-04-16T05:11:04.571Z,25.70
2023-04-16T05:13:32.736Z,16.20
2023-04-16T05:16:01.032Z,16.95
2023-04-16T05:18:29.216Z,38.50
2023-04-16T05:20:57.291Z,59.88
2023-04-16T05:23:25.692Z,65.13
2023-04-16T05:25:53.841Z,19.48
2023-04-16T05:28:22.179Z,16.05
2023-04-16T05:30:50.235Z,18.10
2023-04-16T05:33:18.512Z,21.80
2023-04-16T05:35:46.688Z,18.27
2023-04-16T05:38:14.872Z,17.58
2023-04-16T05:40:43.648Z,19.88
2023-04-16T05:43:11.781Z,15.55
2023-04-16T05:45:40.031Z,19.35
2023-04-16T05:48:08.990Z,17.17
2023-04-16T05:50:37.846Z,10.70
2023-04-16T05:53:07.841Z,13.02
2023-04-16T05:55:36.999Z,10.93
2023-04-16T05:58:05.355Z,10.30
2023-04-16T06:00:34.006Z,19.95
2023-04-16T06:03:03.164Z,16.33
2023-04-16T06:05:32.200Z,13.50
2023-04-16T06:08:00.436Z,12.73
2023-04-16T06:10:28.669Z,15.13
2023-04-16T06:12:56.673Z,18.15
2023-04-16T06:15:24.921Z,21.45
2023-04-16T06:17:53.062Z,12.30
2023-04-16T06:20:21.411Z,17.15
2023-04-16T06:22:49.840Z,15.20
2023-04-16T06:25:18.312Z,12.48
2023-04-16T06:27:46.513Z,15.18
2023-04-16T06:30:15.958Z,16.63
2023-04-16T06:32:44.683Z,21.20
2023-04-16T06:35:13.087Z,14.15
2023-04-16T06:37:41.319Z,15.40
2023-04-16T06:40:09.908Z,12.75
2023-04-16T06:42:38.186Z,17.73
2023-04-16T06:45:06.831Z,14.55
2023-04-16T06:47:34.966Z,12.95
2023-04-16T06:50:03.208Z,13.25
2023-04-16T06:52:31.608Z,13.85
2023-04-16T06:54:59.856Z,15.13
2023-04-16T06:57:28.011Z,15.95
2023-04-16T06:59:56.272Z,18.65
2023-04-16T07:02:25.088Z,15.75
2023-04-16T07:04:53.259Z,19.08
2023-04-16T07:07:21.501Z,20.50
2023-04-16T07:09:49.674Z,25.70
2023-04-16T07:12:18.761Z,14.40
2023-04-16T07:14:48.252Z,17.23
2023-04-16T07:17:16.512Z,19.88
2023-04-16T07:19:45.162Z,16.58
2023-04-16T07:22:13.417Z,17.25
2023-04-16T07:24:41.818Z,17.42
2023-04-16T07:27:09.911Z,15.07
2023-04-16T07:29:38.259Z,17.17
2023-04-16T07:32:06.643Z,13.27
2023-04-16T07:34:34.956Z,15.27
2023-04-16T07:37:03.041Z,15.60
2023-04-16T07:39:31.306Z,16.25
2023-04-16T07:41:59.682Z,19.88
2023-04-16T07:44:27.910Z,15.02
2023-04-16T07:46:56.058Z,14.55
2023-04-16T07:49:24.371Z,17.55
2023-04-16T07:51:52.650Z,22.95
2023-04-16T07:54:20.868Z,19.70
2023-04-16T07:56:48.908Z,21.17
2023-04-16T07:59:22.920Z,27.58
2023-04-16T08:01:54.260Z,16.83
2023-04-16T08:04:22.853Z,17.23
2023-04-16T08:06:51.838Z,21.90
2023-04-16T08:09:20.947Z,19.15
2023-04-16T08:11:50.166Z,19.92
2023-04-16T08:14:18.598Z,16.88
2023-04-16T08:16:46.731Z,15.88
2023-04-16T08:19:14.866Z,21.50
2023-04-16T08:21:43.145Z,17.95
2023-04-16T08:24:11.496Z,16.52
2023-04-16T08:26:39.700Z,17.02
2023-04-16T08:29:08.166Z,15.77
2023-04-16T08:31:36.587Z,13.90
2023-04-16T08:34:04.846Z,18.63
2023-04-16T08:36:33.006Z,10.48
2023-04-16T08:39:01.188Z,22.52
2023-04-16T08:41:34.866Z,14.00
2023-04-16T08:44:14.720Z,13.68
2023-04-16T08:46:44.394Z,10.93
2023-04-16T08:49:17.528Z,17.70
2023-04-16T08:51:51.806Z,20.60
2023-04-16T08:54:35.335Z,11.15
2023-04-16T08:57:07.473Z,14.40
2023-04-16T08:59:36.578Z,18.42
2023-04-16T09:02:06.439Z,18.02
2023-04-16T09:04:37.325Z,13.73
2023-04-16T09:07:08.576Z,16.60
2023-04-16T09:09:39.197Z,15.13
2023-04-16T09:12:09.354Z,19.92
2023-04-16T09:17:07.553Z,11.85
2023-04-16T09:22:03.958Z,10.95
2023-04-16T09:24:33.001Z,14.10
2023-04-16T09:27:01.961Z,17.83
2023-04-16T09:29:41.688Z,13.43
2023-04-16T09:32:12.172Z,21.80
2023-04-16T09:34:56.578Z,13.25
2023-04-16T09:37:26.169Z,16.88
2023-04-16T09:39:59.415Z,14.15
2023-04-16T09:42:32.456Z,20.83
2023-04-16T09:45:03.374Z,26.58
2023-04-16T09:47:46.653Z,19.77
2023-04-16T09:50:20.367Z,26.92
2023-04-16T09:52:52.347Z,25.85
2023-04-16T09:55:28.593Z,15.23
2023-04-16T09:58:00.933Z,18.33
2023-04-16T10:00:31.532Z,12.00
2023-04-16T10:03:07.339Z,14.45
2023-04-16T10:05:36.138Z,23.50
2023-04-16T10:08:11.605Z,11.38
2023-04-16T10:10:39.918Z,17.80
2023-04-16T10:13:08.569Z,15.43
2023-04-16T10:15:37.321Z,15.15
2023-04-16T10:18:06.740Z,12.88
2023-04-16T10:20:35.480Z,23.55
2023-04-16T10:23:05.445Z,23.60
2023-04-16T10:25:34.027Z,24.25
2023-04-16T10:28:02.965Z,18.00
2023-04-16T10:30:31.586Z,26.05
2023-04-16T10:33:00.838Z,28.33
2023-04-16T10:35:29.118Z,13.63
2023-04-16T10:38:23.844Z,21.73
2023-04-16T10:40:58.853Z,15.63
2023-04-16T10:43:27.215Z,19.40
2023-04-16T10:45:55.599Z,13.27
2023-04-16T10:48:26.312Z,9.48
2023-04-16T10:50:58.725Z,16.08
2023-04-16T10:53:28.083Z,15.70
2023-04-16T10:56:05.445Z,10.75
2023-04-16T10:58:36.870Z,16.85
2023-04-16T11:03:47.767Z,19.80
2023-04-16T11:06:18.104Z,29.33
2023-04-16T11:08:54.432Z,17.80
2023-04-16T11:11:23.907Z,15.10
2023-04-16T11:13:56.190Z,13.32
2023-04-16T11:16:26.309Z,21.73
2023-04-16T11:18:56.761Z,13.65
2023-04-16T11:21:25.916Z,12.57
2023-04-16T11:23:54.745Z,20.02
2023-04-16T11:26:29.883Z,13.73
2023-04-16T11:28:58.191Z,14.60
2023-04-16T11:31:26.658Z,12.98
2023-04-16T11:33:57.159Z,12.35
2023-04-16T11:36:27.459Z,16.75
2023-04-16T11:39:02.736Z,22.70
2023-04-16T11:41:31.353Z,18.27
2023-04-16T11:43:59.658Z,16.42
2023-04-16T11:46:40.612Z,19.67
2023-04-16T11:49:09.378Z,16.40
2023-04-16T11:51:42.403Z,18.02
2023-04-16T11:54:18.615Z,17.08
2023-04-16T11:56:48.582Z,20.35
2023-04-16T11:59:21.622Z,23.00
2023-04-16T12:01:52.154Z,17.80
2023-04-16T12:04:23.335Z,17.37
2023-04-16T12:07:08.880Z,18.17
2023-04-16T12:09:40.523Z,13.75
2023-04-16T12:12:28.723Z,18.13
2023-04-16T12:14:57.895Z,29.80
2023-04-16T12:17:26.770Z,15.27
2023-04-16T12:20:03.108Z,19.05
2023-04-16T12:22:37.022Z,12.43
2023-04-16T12:25:13.710Z,12.38
2023-04-16T12:27:46.827Z,17.80
2023-04-16T12:30:25.710Z,17.98
2023-04-16T12:33:16.774Z,11.85
2023-04-16T12:35:45.171Z,21.42
2023-04-16T12:38:13.853Z,22.23
2023-04-16T12:40:42.350Z,18.80
2023-04-16T12:43:11.163Z,17.25
2023-04-16T12:45:40.570Z,18.88
2023-04-16T12:48:08.952Z,18.40
2023-04-16T12:50:37.420Z,21.67
2023-04-16T12:53:05.641Z,18.15
2023-04-16T12:55:33.946Z,15.05
2023-04-16T12:58:02.277Z,15.50
2023-04-16T13:00:30.562Z,13.55
2023-04-16T13:02:58.892Z,14.00
2023-04-16T13:05:27.600Z,16.17
2023-04-16T13:07:55.999Z,15.98
2023-04-16T13:10:24.353Z,12.52
2023-04-16T13:12:52.572Z,18.90
2023-04-16T13:15:20.994Z,17.83
2023-04-16T13:17:49.214Z,14.88
2023-04-16T13:20:17.661Z,18.58
2023-04-16T13:22:45.933Z,21.05
2023-04-16T13:25:14.345Z,16.70
2023-04-16T13:27:42.590Z,18.92
2023-04-16T13:30:11.440Z,12.68
2023-04-16T13:32:39.835Z,14.52
2023-04-16T13:35:08.394Z,10.60
2023-04-16T13:37:36.673Z,19.48
2023-04-16T13:40:05.260Z,22.38
2023-04-16T13:42:33.495Z,13.27
2023-04-16T13:45:01.708Z,18.75
2023-04-16T13:47:30.065Z,14.15
2023-04-16T13:49:58.432Z,13.60
2023-04-16T13:52:26.598Z,11.68
2023-04-16T13:54:54.825Z,13.93
2023-04-16T13:57:23.117Z,12.20
2023-04-16T13:59:51.517Z,14.52
2023-04-16T14:02:20.732Z,14.85
2023-04-16T14:04:49.532Z,12.20
2023-04-16T14:07:17.783Z,13.77
2023-04-16T14:09:46.102Z,27.17
2023-04-16T14:12:14.274Z,13.70
2023-04-16T14:14:42.505Z,13.80
2023-04-16T14:17:10.837Z,21.92
2023-04-16T14:19:39.099Z,29.00
2023-04-16T14:22:08.770Z,19.75
2023-04-16T14:24:37.795Z,16.80
2023-04-16T14:27:06.009Z,19.20
2023-04-16T14:29:34.354Z,11.10
2023-04-16T14:32:02.659Z,18.52
2023-04-16T14:34:30.985Z,18.33
2023-04-16T14:36:59.345Z,21.77
2023-04-16T14:39:27.875Z,22.90
2023-04-16T14:41:55.946Z,19.63
2023-04-16T14:44:24.166Z,17.65
2023-04-16T14:46:52.436Z,16.40
2023-04-16T14:49:20.709Z,16.60
2023-04-16T14:51:49.009Z,21.60
2023-04-16T14:54:17.255Z,15.32
2023-04-16T14:56:45.928Z,17.17
2023-04-16T14:59:14.458Z,19.55
2023-04-16T15:01:43.208Z,14.27
2023-04-16T15:04:11.656Z,17.63
2023-04-16T15:06:40.095Z,22.42
2023-04-16T15:09:08.918Z,17.45
2023-04-16T15:11:37.133Z,21.70
2023-04-16T15:14:05.510Z,15.55
2023-04-16T15:16:33.983Z,20.73
2023-04-16T15:19:04.817Z,27.17
2023-04-16T15:21:34.177Z,21.73
2023-04-16T15:24:04.601Z,17.02
2023-04-16T15:26:33.048Z,15.60
2023-04-16T15:29:01.344Z,18.25
2023-04-16T15:31:29.800Z,18.55
2023-04-16T15:33:58.303Z,18.40
2023-04-16T15:36:26.588Z,16.73
2023-04-16T15:38:54.922Z,20.23
2023-04-16T15:41:23.271Z,19.05
2023-04-16T15:43:51.644Z,23.95
2023-04-16T15:46:20.034Z,18.75
2023-04-16T15:48:48.282Z,16.13
2023-04-16T15:51:16.795Z,20.00
2023-04-16T15:53:45.119Z,27.27
2023-04-16T15:56:13.410Z,18.58
2023-04-16T15:58:41.614Z,17.90
2023-04-16T16:01:09.892Z,15.18
2023-04-16T16:03:38.367Z,15.43
2023-04-16T16:06:07.258Z,20.67
2023-04-16T16:08:36.021Z,18.83
2023-04-16T16:11:04.741Z,13.85
2023-04-16T16:13:32.914Z,18.15
2023-04-16T16:16:01.305Z,17.83
2023-04-16T16:18:29.634Z,16.05
2023-04-16T16:21:00.665Z,16.35
2023-04-16T16:23:28.987Z,12.65
2023-04-16T16:25:57.287Z,15.77
2023-04-16T16:28:25.620Z,11.90
2023-04-16T16:30:53.900Z,20.42
2023-04-16T16:33:22.532Z,16.65
2023-04-16T16:35:50.803Z,16.48
2023-04-16T16:38:18.889Z,15.15
2023-04-16T16:40:47.193Z,13.65
2023-04-16T16:43:15.516Z,18.48
2023-04-16T16:45:44.088Z,21.55
2023-04-16T16:48:12.309Z,18.73
2023-04-16T16:50:40.658Z,17.55
2023-04-16T16:53:09.096Z,17.30
2023-04-16T16:55:37.387Z,22.23
2023-04-16T16:58:05.834Z,14.88
2023-04-16T17:00:33.930Z,15.45
2023-04-16T17:03:02.455Z,15.85
2023-04-16T17:05:30.801Z,23.42
2023-04-16T17:07:59.221Z,17.25
2023-04-16T17:10:27.401Z,17.63
2023-04-16T17:12:55.682Z,20.55
2023-04-16T17:15:24.036Z,24.02
2023-04-16T17:17:52.437Z,14.98
2023-04-16T17:20:26.643Z,17.27
2023-04-16T17:22:55.012Z,24.67
2023-04-16T17:25:23.302Z,17.23
2023-04-16T17:27:51.475Z,21.00
2023-04-16T17:30:19.699Z,24.63
2023-04-16T17:32:48.089Z,16.80
2023-04-16T17:35:16.335Z,13.07
2023-04-16T17:37:44.725Z,21.48
2023-04-16T17:40:13.106Z,21.83
2023-04-16T17:42:41.471Z,18.92
2023-04-16T17:45:10.084Z,17.02
2023-04-16T17:47:39.115Z,18.40
2023-04-16T17:50:08.674Z,20.30
2023-04-16T17:52:36.939Z,18.58
2023-04-16T17:55:06.178Z,19.58
2023-04-16T17:57:34.762Z,19.42
2023-04-16T18:00:02.951Z,23.00
2023-04-16T18:02:40.170Z,15.15
2023-04-16T18:05:09.433Z,14.70
2023-04-16T18:07:37.716Z,15.80
2023-04-16T18:10:06.564Z,19.75
2023-04-16T18:12:34.991Z,26.25
2023-04-16T18:15:03.207Z,15.45
2023-04-16T18:17:31.581Z,22.45
2023-04-16T18:19:59.674Z,20.67
2023-04-16T18:22:28.011Z,19.80
2023-04-16T18:24:56.198Z,18.88
2023-04-16T18:27:24.392Z,21.02
2023-04-16T18:29:54.592Z,23.33
2023-04-16T18:32:23.647Z,35.13
2023-04-16T18:34:52.863Z,24.42
2023-04-16T18:37:21.173Z,23.38
2023-04-16T18:39:49.648Z,19.90
2023-04-16T18:42:17.821Z,27.80
2023-04-16T18:44:53.803Z,15.52
2023-04-16T18:47:22.560Z,29.77
2023-04-16T18:49:51.046Z,21.13
2023-04-16T18:52:19.254Z,21.55
2023-04-16T18:54:47.555Z,28.23
2023-04-16T18:57:15.944Z,36.50
2023-04-16T18:59:44.080Z,25.75
2023-04-16T19:02:12.421Z,20.75
2023-04-16T19:04:40.676Z,30.15
2023-04-16T19:07:09.096Z,37.88
2023-04-16T19:09:37.215Z,39.00
2023-04-16T19:12:05.726Z,31.77
2023-04-16T19:14:34.124Z,33.88
2023-04-16T19:17:02.382Z,28.92
2023-04-16T19:19:30.579Z,29.63
2023-04-16T19:21:58.887Z,27.42
2023-04-16T19:24:27.160Z,23.27
2023-04-16T19:26:55.474Z,26.02
2023-04-16T19:29:23.705Z,25.38
2023-04-16T19:31:51.998Z,26.98
2023-04-16T19:34:20.286Z,21.27
2023-04-16T19:36:48.662Z,24.85
2023-04-16T19:39:16.746Z,22.52
2023-04-16T19:41:45.114Z,31.10
2023-04-16T19:44:13.348Z,23.20
2023-04-16T19:46:41.679Z,23.05
2023-04-16T19:49:10.261Z,26.60
2023-04-16T19:51:38.774Z,26.58
2023-04-16T19:54:07.252Z,24.67
2023-04-16T19:56:35.519Z,36.33
2023-04-16T19:59:03.728Z,16.92
2023-04-16T20:01:32.052Z,27.85
2023-04-16T20:04:00.390Z,31.67
2023-04-16T20:06:28.824Z,32.13
2023-04-16T20:08:57.349Z,28.58
2023-04-16T20:11:25.670Z,27.85
2023-04-16T20:13:53.868Z,23.42
2023-04-16T20:16:22.235Z,37.17
2023-04-16T20:18:50.672Z,35.45
2023-04-16T20:21:18.892Z,37.08
2023-04-16T20:23:47.414Z,37.40
2023-04-16T20:26:16.342Z,31.40
2023-04-16T20:28:47.529Z,30.55
2023-04-16T20:31:15.767Z,23.58
2023-04-16T20:33:44.165Z,31.98
2023-04-16T20:36:12.414Z,35.45
2023-04-16T20:38:40.461Z,31.80
2023-04-16T20:41:09.060Z,26.00
2023-04-16T20:43:41.402Z,25.23
2023-04-16T20:46:10.917Z,24.58
2023-04-16T20:48:39.850Z,27.50
2023-04-16T20:51:08.524Z,39.33
2023-04-16T20:53:36.902Z,24.35
2023-04-16T20:56:05.202Z,22.58
2023-04-16T20:58:33.601Z,27.17
2023-04-16T21:01:01.871Z,31.20
2023-04-16T21:03:30.276Z,29.08
2023-04-16T21:05:58.615Z,26.77
2023-04-16T21:08:26.921Z,32.90
2023-04-16T21:10:55.412Z,51.83
2023-04-16T21:13:23.574Z,32.20
2023-04-16T21:15:52.004Z,30.05
2023-04-16T21:18:20.236Z,26.55
2023-04-16T21:20:48.521Z,37.53
2023-04-16T21:23:16.796Z,28.63
2023-04-16T21:25:45.095Z,28.77
2023-04-16T21:28:13.289Z,25.88
2023-04-16T21:30:42.066Z,18.88
2023-04-16T21:33:10.312Z,37.60
2023-04-16T21:35:38.527Z,27.83
2023-04-16T21:38:06.794Z,27.73
2023-04-16T21:40:34.973Z,22.80
2023-04-16T21:43:03.139Z,25.85
2023-04-16T21:45:31.412Z,37.90
2023-04-16T21:47:59.584Z,37.33
2023-04-16T21:50:28.001Z,31.90
2023-04-16T21:52:56.151Z,28.92
2023-04-16T21:55:24.551Z,23.58
2023-04-16T21:57:52.717Z,27.30
2023-04-16T22:00:21.201Z,26.48
2023-04-16T22:02:49.377Z,26.70
2023-04-16T22:05:17.802Z,26.40
2023-04-16T22:07:46.061Z,24.98
2023-04-16T22:10:15.153Z,16.15
2023-04-16T22:12:44.616Z,22.35
2023-04-16T22:15:14.080Z,13.45
2023-04-16T22:17:42.437Z,12.88
2023-04-16T22:20:10.920Z,7.55
2023-04-16T22:22:40.066Z,8.52
2023-04-16T22:25:08.890Z,5.80
2023-04-16T22:27:37.304Z,10.80
2023-04-16T22:30:07.773Z,6.85
2023-04-16T22:32:36.154Z,7.50
2023-04-16T22:35:04.805Z,6.10
2023-04-16T22:37:32.996Z,7.28
2023-04-16T22:40:01.390Z,7.22
2023-04-16T22:42:29.568Z,6.47
2023-04-16T22:44:58.570Z,5.65
2023-04-16T22:47:26.885Z,6.72
2023-04-16T22:49:55.264Z,7.05
2023-04-16T22:52:23.645Z,6.30
2023-04-16T22:54:51.934Z,7.85
2023-04-16T22:57:20.330Z,9.70
2023-04-16T22:59:48.712Z,23.40
2023-04-16T23:02:17.228Z,14.10
2023-04-16T23:04:47.137Z,19.73
2023-04-16T23:07:16.107Z,6.90
2023-04-16T23:09:44.353Z,5.85
2023-04-16T23:12:13.916Z,6.30
2023-04-16T23:14:43.862Z,17.35
2023-04-16T23:17:12.807Z,16.92
2023-04-16T23:21:03.735Z,56.38
2023-04-16T23:23:31.940Z,37.22
2023-04-16T23:26:00.045Z,27.83
2023-04-16T23:28:28.490Z,25.48
2023-04-16T23:30:56.831Z,10.73
2023-04-16T23:33:24.971Z,14.27
2023-04-16T23:35:53.326Z,12.40
2023-04-16T23:38:21.615Z,12.90
2023-04-16T23:40:49.700Z,13.13
2023-04-16T23:43:18.068Z,8.75
2023-04-16T23:45:46.506Z,6.00
2023-04-16T23:48:15.986Z,6.72
2023-04-16T23:50:44.429Z,8.82
2023-04-16T23:53:12.888Z,6.88
2023-04-16T23:55:40.982Z,5.78
2023-04-16T23:58:09.547Z,7.25
